Flight Track Log - Related Links

Times and Time Zones

All times are in EDT time to prevent confusion due to time zone crossing. See the DAL681 flight status page for this flight to view local times or setup timezone preferences in your user account.

Time Position Orientation Groundspeed Altitude Reporting Facility
EDT Latitude Longitude Course Direction KTS MPH feet Rate Location/Type
Sun 10:42:12 AM 33.6333 -84.4000 145° Southeast 167 192 2,100  Level Atlanta TRACON
Sun 10:43:12 AM 33.6167 -84.3333 107° East 224 258 2,900 1,450 Climbing Atlanta TRACON
Sun 10:44:00 AM 33.3646 -84.2479 140° Southeast  Level FlightAware Approximate
Sun 10:44:12 AM 33.5667 -84.2833 140° Southeast 271 312 5,000  Level Atlanta TRACON
Sun 10:45:00 AM 33.2687 -84.1518 140° Southeast  Level FlightAware Approximate
Sun 10:45:12 AM 33.5000 -84.2833 180° South 262 302 8,000  Level Atlanta TRACON
Sun 10:46:00 AM 33.1728 -84.0559 140° Southeast  Level FlightAware Approximate
Sun 10:47:00 AM 33.0811 -83.9648 145° Southeast  Level FlightAware Approximate
Sun 10:47:30 AM 33.3142 -84.2053 161° South 323 372 12,300  Level Atlanta Center
Sun 10:48:30 AM 33.2411 -84.1356 141° Southeast 357 411 14,000 1,900 Climbing Atlanta Center
Sun 10:49:30 AM 33.1597 -84.0489 138° Southeast 382 440 16,100 1,950 Climbing Atlanta Center
Sun 10:50:30 AM 33.0742 -83.9669 141° Southeast 390 449 17,900 1,950 Climbing Atlanta Center
Sun 10:51:30 AM 32.9717 -83.8828 145° Southeast 401 461 20,000 1,600 Climbing Atlanta Center
Sun 10:52:30 AM 32.8756 -83.8039 145° Southeast 406 467 21,100 1,146 Climbing Atlanta Center
Sun 10:54:28 AM 32.6861 -83.6431 144° Southeast 461 531 23,400 1,213 Climbing Jacksonville Center
Sun 10:55:28 AM 32.5886 -83.5436 139° Southeast 461 531 24,700 1,300 Climbing Jacksonville Center
Sun 10:56:28 AM 32.4869 -83.4467 141° Southeast 467 537 26,000 1,150 Climbing Jacksonville Center
Sun 10:57:28 AM 32.3869 -83.3428 139° Southeast 467 537 27,000 950 Climbing Jacksonville Center
Sun 10:58:28 AM 32.2850 -83.2417 140° Southeast 473 544 27,900 1,250 Climbing Jacksonville Center
Sun 10:59:28 AM 32.1831 -83.1456 141° Southeast 473 544 29,500 1,400 Climbing Jacksonville Center
Sun 11:00:28 AM 32.0831 -83.0422 139° Southeast 473 544 30,700 1,100 Climbing Jacksonville Center
Sun 11:01:28 AM 31.9850 -82.9464 140° Southeast 473 544 31,700 650 Climbing Jacksonville Center
Sun 11:02:28 AM 31.8825 -82.8461 140° Southeast 468 539 32,000 150 Climbing Jacksonville Center
Sun 11:03:28 AM 31.7822 -82.7483 140° Southeast 473 544 32,000  Level Jacksonville Center
Sun 11:04:28 AM 31.6839 -82.6508 140° Southeast 468 539 32,000  Level Jacksonville Center
Sun 11:05:28 AM 31.5836 -82.5536 140° Southeast 468 539 32,000  Level Jacksonville Center
Sun 11:06:28 AM 31.4808 -82.4614 143° Southeast 468 539 32,000  Level Jacksonville Center
Sun 11:07:28 AM 31.3761 -82.3694 143° Southeast 468 539 32,000  Level Jacksonville Center
Sun 11:08:28 AM 31.2714 -82.2897 147° Southeast 461 531 32,000 -50 Level Jacksonville Center
Sun 11:09:28 AM 31.1686 -82.2006 143° Southeast 461 531 31,900  Descending Jacksonville Center
Sun 11:10:28 AM 31.0639 -82.1117 144° Southeast 461 531 32,000 50 Climbing Jacksonville Center
Sun 11:11:28 AM 30.9547 -82.0231 145° Southeast 466 536 32,000 -50 Level Jacksonville Center
Sun 11:12:28 AM 30.8456 -81.9319 144° Southeast 474 545 31,900  Descending Jacksonville Center
Sun 11:13:28 AM 30.7361 -81.8411 144° Southeast 479 551 32,000 50 Climbing Jacksonville Center
Sun 11:14:28 AM 30.6289 -81.7506 144° Southeast 479 551 32,000 -50 Level Jacksonville Center
Sun 11:15:28 AM 30.5175 -81.6603 145° Southeast 479 551 31,900 -50 Descending Jacksonville Center
Sun 11:16:28 AM 30.4100 -81.5678 143° Southeast 479 551 31,900  Level Jacksonville Center
Sun 11:17:28 AM 30.2922 -81.4950 152° Southeast 479 551 31,900  Level Jacksonville Center
Sun 11:18:28 AM 30.1539 -81.4392 161° South 474 545 31,900 50 Level Jacksonville Center
Sun 11:19:28 AM 30.0281 -81.3908 162° South 474 545 32,000 50 Climbing Jacksonville Center
Sun 11:20:28 AM 29.9000 -81.3447 163° South 479 551 32,000 -50 Level Jacksonville Center
Sun 11:21:28 AM 29.7764 -81.2964 161° South 479 551 31,900 -50 Descending Jacksonville Center
Sun 11:22:28 AM 29.6525 -81.2483 161° South 479 551 31,900  Level Jacksonville Center
Sun 11:24:15 AM 29.4314 -81.1633 161° South 478 550 31,900  Level Miami Center
Sun 11:25:15 AM 29.3081 -81.1061 158° South 478 550 31,900 50 Level Miami Center
Sun 11:26:15 AM 29.2042 -81.0142 142° Southeast 468 539 32,000 50 Climbing Miami Center
Sun 11:27:15 AM 29.1072 -80.9061 136° Southeast 482 555 32,000 -50 Level Miami Center
Sun 11:28:15 AM 29.0122 -80.8006 136° Southeast 482 555 31,900 -50 Descending Miami Center
Sun 11:29:15 AM 28.9150 -80.6953 137° Southeast 477 549 31,900 50 Level Miami Center
Sun 11:30:15 AM 28.8319 -80.5975 134° Southeast 477 549 32,000 50 Climbing Miami Center
Sun 11:31:15 AM 28.7414 -80.4692 129° Southeast 472 543 32,000  Level Miami Center
Sun 11:32:15 AM 28.6567 -80.3503 129° Southeast 479 551 32,000  Level Miami Center
Sun 11:33:15 AM 28.5719 -80.2297 129° Southeast 485 558 32,000  Level Miami Center
Sun 11:34:15 AM 28.4994 -80.1236 128° Southeast 478 550 32,000  Level Miami Center
Sun 11:35:15 AM 28.4144 -80.0053 129° Southeast 478 550 32,000 -50 Level Miami Center
Sun 11:36:15 AM 28.3231 -79.8778 129° Southeast 478 550 31,900  Descending Miami Center
Sun 11:37:15 AM 28.2503 -79.7722 128° Southeast 478 550 32,000 50 Climbing Miami Center
Sun 11:38:15 AM 28.1669 -79.6569 129° Southeast 478 550 32,000  Level Miami Center
Sun 11:39:15 AM 28.0814 -79.5419 130° Southeast 478 550 32,000 -50 Level Miami Center
Sun 11:40:15 AM 27.9958 -79.4247 130° Southeast 478 550 31,900 -50 Descending Miami Center
Sun 11:41:15 AM 27.9164 -79.3078 128° Southeast 478 550 31,900 50 Level Miami Center
Sun 11:42:15 AM 27.8247 -79.1789 129° Southeast 478 550 32,000 50 Climbing Miami Center
Sun 11:43:15 AM 27.7431 -79.0669 129° Southeast 478 550 32,000 300 Level Miami Center
Sun 11:44:15 AM 27.6653 -78.9600 129° Southeast 485 558 32,600 500 Climbing Miami Center
Sun 11:45:15 AM 27.5833 -78.8483 130° Southeast 471 542 33,000 200 Climbing Miami Center
Sun 11:46:15 AM 27.4908 -78.7225 130° Southeast 476 548 33,000  Level Miami Center
Sun 11:47:15 AM 27.4128 -78.6161 130° Southeast 481 554 33,000 -50 Level Miami Center
Sun 11:48:15 AM 27.3203 -78.5047 133° Southeast 481 554 32,900  Descending Miami Center
Sun 11:49:15 AM 27.2339 -78.3728 126° Southeast 481 554 33,000 50 Climbing Miami Center
Sun 11:50:15 AM 27.1517 -78.2503 127° Southeast 481 554 33,000  Level Miami Center
Sun 11:51:15 AM 27.0711 -78.1325 128° Southeast 481 554 33,000  Level Miami Center
Sun 11:52:15 AM 27.0053 -78.0408 129° Southeast 481 554 33,000  Level Miami Center
Sun 11:53:15 AM 26.9164 -77.9164 129° Southeast 472 543 33,000  Level Miami Center
Sun 11:54:15 AM 26.8272 -77.8086 133° Southeast 467 537 33,000  Level Miami Center
Sun 11:55:15 AM 26.7358 -77.6986 133° Southeast 467 537 33,000  Level Miami Center
Sun 11:56:15 AM 26.6447 -77.5886 133° Southeast 473 544 33,000  Level Miami Center
Sun 11:57:15 AM 26.5553 -77.4811 133° Southeast 473 544 33,000  Level Miami Center
Sun 11:58:15 AM 26.4575 -77.3717 135° Southeast 473 544 33,000  Level Miami Center
Sun 11:59:15 AM 26.3639 -77.2622 134° Southeast 473 544 33,000  Level Miami Center
Sun 12:00:15 PM 26.2722 -77.1508 133° Southeast 473 544 33,000  Level Miami Center
Sun 12:01:15 PM 26.1844 -77.0486 134° Southeast 469 540 33,000  Level Miami Center
Sun 12:02:15 PM 26.0947 -76.9467 134° Southeast 474 545 33,000  Level Miami Center
Sun 12:03:15 PM 26.0008 -76.8403 134° Southeast 474 545 33,000  Level Miami Center
Sun 12:04:15 PM 25.9108 -76.7361 134° Southeast 469 540 33,000  Level Miami Center
Sun 12:05:15 PM 25.8208 -76.6303 133° Southeast 469 540 33,000  Level Miami Center
Sun 12:06:15 PM 25.7286 -76.5267 135° Southeast 469 540 33,000  Level Miami Center
Sun 12:07:15 PM 25.6406 -76.4231 133° Southeast 469 540 33,000  Level Miami Center
Sun 12:08:15 PM 25.5483 -76.3175 134° Southeast 469 540 33,000  Level Miami Center
Sun 12:09:15 PM 25.4539 -76.2119 135° Southeast 469 540 33,000  Level Miami Center
Sun 12:10:15 PM 25.3656 -76.1114 134° Southeast 469 540 33,000  Level Miami Center
Sun 12:11:15 PM 25.2772 -76.0083 133° Southeast 469 540 33,000  Level Miami Center
Sun 12:12:15 PM 25.1847 -75.9033 134° Southeast 469 540 33,000  Level Miami Center
Sun 12:13:15 PM 25.0900 -75.8008 136° Southeast 469 540 33,000  Level Miami Center
Sun 12:14:15 PM 25.0119 -75.7100 133° Southeast 469 540 33,000  Level Miami Center
Sun 12:15:15 PM 24.9192 -75.6075 135° Southeast 463 533 33,000  Level Miami Center
Sun 12:16:15 PM 24.8264 -75.5008 134° Southeast 463 533 33,000  Level Miami Center
Sun 12:17:15 PM 24.7375 -75.4011 134° Southeast 463 533 33,000  Level Miami Center
Sun 12:18:15 PM 24.6444 -75.2972 135° Southeast 463 533 33,000  Level Miami Center
Sun 12:19:15 PM 24.5514 -75.1933 135° Southeast 463 533 33,000  Level Miami Center
Sun 12:20:15 PM 24.4625 -75.0942 135° Southeast 463 533 33,000  Level Miami Center
Sun 12:21:15 PM 24.3692 -74.9906 135° Southeast 463 533 33,000  Level Miami Center
Sun 12:22:15 PM 24.2739 -74.8869 135° Southeast 463 533 33,000  Level Miami Center
Sun 12:23:15 PM 24.1847 -74.7858 134° Southeast 463 533 33,000  Level Miami Center
Sun 12:24:15 PM 24.0892 -74.6806 135° Southeast 469 540 33,000  Level Miami Center
Sun 12:25:15 PM 23.9958 -74.5797 135° Southeast 469 540 33,000  Level Miami Center
Sun 12:26:15 PM 23.8936 -74.4681 135° Southeast 469 540 33,000  Level Miami Center
Sun 12:27:15 PM 23.8000 -74.3653 135° Southeast 474 545 33,000  Level Miami Center
Sun 12:28:15 PM 23.7044 -74.2628 136° Southeast 474 545 33,000  Level Miami Center
Sun 12:29:15 PM 23.6147 -74.1628 134° Southeast 474 545 33,000  Level Miami Center
Sun 12:30:15 PM 23.5189 -74.0606 136° Southeast 474 545 33,000  Level Miami Center
Sun 12:31:15 PM 23.4208 -73.9586 136° Southeast 474 545 33,000  Level Miami Center
Sun 12:32:15 PM 23.3292 -73.8567 134° Southeast 474 545 33,000  Level Miami Center
Sun 12:33:15 PM 23.2350 -73.7572 136° Southeast 474 545 33,000  Level Miami Center
Sun 12:34:15 PM 23.1431 -73.6531 134° Southeast 474 545 33,000  Level Miami Center
Sun 12:35:15 PM 23.0492 -73.5539 136° Southeast 474 545 33,000  Level Miami Center
Sun 12:36:15 PM 22.9550 -73.4525 135° Southeast 474 545 33,000  Level Miami Center
Sun 12:37:15 PM 22.8606 -73.3514 135° Southeast 474 545 33,000  Level Miami Center
Sun 12:38:15 PM 22.7664 -73.2503 135° Southeast 474 545 33,000  Level Miami Center
Sun 12:39:15 PM 22.6681 -73.1542 138° Southeast 474 545 33,000  Level Miami Center
Sun 12:40:15 PM 22.5758 -73.0556 135° Southeast 474 545 33,000  Level Miami Center
Sun 12:41:15 PM 22.4875 -72.9525 133° Southeast 474 545 33,000  Level Miami Center
Sun 12:42:15 PM 22.3931 -72.8522 136° Southeast 474 545 33,000  Level Miami Center
Sun 12:43:15 PM 22.2983 -72.7494 135° Southeast 474 545 33,000  Level Miami Center
Sun 12:44:15 PM 22.2017 -72.6494 136° Southeast 474 545 33,000  Level Miami Center
Sun 12:45:15 PM 22.1092 -72.5517 136° Southeast 474 545 33,000  Level Miami Center
Sun 12:46:15 PM 22.0125 -72.4519 136° Southeast 474 545 33,000  Level Miami Center
Sun 12:47:15 PM 21.9178 -72.3519 136° Southeast 474 545 33,000  Level Miami Center
Sun 12:48:15 PM 21.8228 -72.2525 136° Southeast 474 545 33,000  Level Miami Center
Sun 12:49:15 PM 21.7303 -72.1553 136° Southeast 474 545 33,000  Level Miami Center
Sun 12:50:15 PM 21.6353 -72.0558 136° Southeast 474 545 33,000  Level Miami Center
Sun 12:51:15 PM 21.5403 -71.9567 136° Southeast 474 545 33,000  Level Miami Center
Sun 12:52:15 PM 21.4453 -71.8600 137° Southeast 474 545 33,000  Level Miami Center
Sun 12:53:15 PM 21.3503 -71.7586 135° Southeast 474 545 33,000  Level Miami Center
Sun 12:54:15 PM 21.2553 -71.6600 136° Southeast 474 545 33,000  Level Miami Center
Sun 12:55:15 PM 21.1600 -71.5636 137° Southeast 474 545 33,000  Level Miami Center
Sun 12:56:15 PM 21.0650 -71.4650 136° Southeast 474 545 33,000  Level Miami Center
Sun 12:57:15 PM 20.9675 -71.3669 137° Southeast 474 545 33,000  Level Miami Center
Sun 12:58:15 PM 20.8744 -71.2708 136° Southeast 474 545 33,000  Level Miami Center
Sun 12:59:15 PM 20.7878 -71.1811 136° Southeast 474 545 33,000  Level Miami Center
Sun 01:00:15 PM 20.6925 -71.0856 137° Southeast 474 545 33,000  Level Miami Center
Sun 01:01:15 PM 20.5972 -70.9875 136° Southeast 474 545 33,000  Level Miami Center
Sun 01:02:15 PM 20.5058 -70.8875 134° Southeast 474 545 33,000 -100 Level Miami Center
Sun 01:03:15 PM 20.4022 -70.7992 141° Southeast 474 545 32,800 -200 Descending Miami Center
Sun 01:05:00 PM 20.2032 -70.7134 158° South  Level FlightAware Approximate
Sun 01:12:00 PM 19.5028 -70.2534 131° Southeast  Level FlightAware Approximate
Sun 01:13:00 PM 19.4263 -70.1516 128° Southeast  Level FlightAware Approximate
Sun 01:14:00 PM 19.3500 -70.0498 128° Southeast  Level FlightAware Approximate
Sun 01:15:00 PM 19.2736 -69.9481 128° Southeast  Level FlightAware Approximate
Sun 01:16:00 PM 19.1689 -69.8907 164° South  Level FlightAware Approximate
Sun 01:17:00 PM 19.0509 -69.8552 164° South  Level FlightAware Approximate
Sun 01:18:00 PM 18.9330 -69.8191 164° South  Level FlightAware Approximate
Sun 01:19:00 PM 18.8153 -69.7829 162° South  Level FlightAware Approximate
Sun 01:20:00 PM 18.6983 -69.7439 162° South  Level FlightAware Approximate
Sun 01:21:00 PM 18.5829 -69.6999 169° South  Level FlightAware Approximate
Sun 01:22:00 PM 18.4642 -69.6690 159° South  Level FlightAware Approximate
Sun 01:23:00 PM 18.4297 -69.6689 159° South  Level Estimated
Sun 01:24:00 PM 18.4297 -69.6689 159° South  Level Estimated
Sun 01:25:00 PM 18.4297 -69.6689 159° South  Level Estimated
Sun 01:26:00 PM 18.4297 -69.6689 159° South  Level Estimated
Sun 01:27:00 PM 18.4297 -69.6689 159° South  Level Estimated

Login

Don't have an account? Register now (free) for customized features, flight alerts, and more!